Time;durP1;ratioP1;P1;durP2;ratioP2;P2;SDS_P1;SDS_P2;PMS_P1;PMS_P2;Temp;Humidity;BMP_temperature;BMP_pressure;BME280_temperature;BME280_humidity;BME280_pressure;Samples;Min_cycle;Max_cycle;Signal;HPM_P1;HPM_P2
2023/07/12 00:00:58;;;;;;;;;;;;;;;;;;5083240;28;20328;-80
2023/07/12 00:03:25;;;;;;;4.70;1.90;;;;;;;;;;5082624;28;19920;-81
2023/07/12 00:05:52;;;;;;;3.88;1.90;;;;;;;;;;5082463;28;20044;-79
2023/07/12 00:08:25;;;;;;;2.92;2.00;;;;;;;;;;5081985;28;20348;-79
2023/07/12 00:10:55;;;;;;;3.88;2.10;;;;;;;;;;5082652;28;20109;-80
2023/07/12 00:13:23;;;;;;;4.20;2.00;;;;;;;;;;5082517;28;20056;-80
2023/07/12 00:15:51;;;;;;;9.25;2.13;;;;;;;;;;5082222;28;20050;-77
2023/07/12 00:18:24;;;;;;;3.13;1.80;;;;;;;;;;5082339;28;20044;-74
2023/07/12 00:20:52;;;;;;;4.88;2.05;;;;;;;;;;5082252;28;20127;-79
2023/07/12 00:23:19;;;;;;;5.32;2.25;;;;;;;;;;5081756;28;20048;-77
2023/07/12 00:25:48;;;;;;;2.78;1.83;;;;;;;;;;5082137;28;20087;-80
2023/07/12 00:28:21;;;;;;;3.90;1.95;;;;;;;;;;5081968;28;20083;-80
2023/07/12 00:30:49;;;;;;;4.35;1.83;;;;;;;;;;5081854;28;20287;-81
2023/07/12 00:33:17;;;;;;;2.88;1.92;;;;;;;;;;5081902;28;20040;-76
2023/07/12 00:35:44;;;;;;;6.90;2.10;;;;;;;;;;5082038;28;20049;-80
2023/07/12 00:38:25;;;;;;;4.35;2.30;;;;;;;;;;5081110;28;20049;-80
2023/07/12 00:41:10;;;;;;;3.75;2.10;;;;;;;;;;5079855;28;20076;-78
2023/07/12 00:43:55;;;;;;;5.93;2.25;;;;;;;;;;5081474;28;20044;-81
2023/07/12 00:46:40;;;;;;;4.15;2.30;;;;;;;;;;5081221;28;20048;-82
2023/07/12 00:49:13;;;;;;;5.07;1.88;;;;;;;;;;5081471;28;20071;-77
2023/07/12 00:51:48;;;;;;;3.00;1.90;;;;;;;;;;5081181;28;20119;-81
2023/07/12 00:54:18;;;;;;;4.97;2.22;;;;;;;;;;5081412;28;20044;-82
2023/07/12 00:56:45;;;;;;;4.43;2.20;;;;;;;;;;5081587;28;20080;-81
2023/07/12 00:59:17;;;;;;;3.90;2.00;;;;;;;;;;5081625;28;20120;-76
2023/07/12 01:01:44;;;;;;;3.83;2.20;;;;;;;;;;5081931;28;20386;-82
2023/07/12 01:04:16;;;;;;;6.47;2.30;;;;;;;;;;5080335;28;20049;-81
2023/07/12 01:06:43;;;;;;;3.55;2.05;;;;;;;;;;5081440;28;20048;-81
2023/07/12 01:09:16;;;;;;;4.18;2.15;;;;;;;;;;5080998;28;20347;-78
2023/07/12 01:11:43;;;;;;;4.32;2.10;;;;;;;;;;5081195;28;20415;-80
2023/07/12 01:14:12;;;;;;;6.25;2.25;;;;;;;;;;5081577;28;20044;-79
2023/07/12 01:16:42;;;;;;;2.90;1.80;;;;;;;;;;5081040;28;20344;-78
2023/07/12 01:19:09;;;;;;;4.13;1.70;;;;;;;;;;5081041;28;20049;-77
2023/07/12 01:21:42;;;;;;;5.43;2.08;;;;;;;;;;5081353;28;20111;-79
2023/07/12 01:24:09;;;;;;;3.40;1.77;;;;;;;;;;5080869;28;20072;-79
2023/07/12 01:26:38;;;;;;;3.42;2.05;;;;;;;;;;5081067;28;20048;-79
2023/07/12 01:29:08;;;;;;;4.35;1.92;;;;;;;;;;5081174;28;20352;-80
2023/07/12 01:31:36;;;;;;;7.63;2.20;;;;;;;;;;5080626;28;20128;-78
2023/07/12 01:34:03;;;;;;;3.70;1.98;;;;;;;;;;5081226;28;20050;-79
2023/07/12 01:36:31;;;;;;;4.28;2.00;;;;;;;;;;5080610;28;20340;-75
2023/07/12 01:38:59;;;;;;;4.65;2.00;;;;;;;;;;5080501;28;20048;-79
2023/07/12 01:41:27;;;;;;;6.32;1.95;;;;;;;;;;5080582;28;20079;-80
2023/07/12 01:43:54;;;;;;;3.67;2.15;;;;;;;;;;5079872;28;20048;-79
2023/07/12 01:46:20;;;;;;;4.63;1.98;;;;;;;;;;5080676;28;20090;-79
2023/07/12 01:48:47;;;;;;;3.40;2.08;;;;;;;;;;5080598;28;20045;-77
2023/07/12 01:51:16;;;;;;;5.85;2.22;;;;;;;;;;5080843;28;20056;-78
2023/07/12 01:53:43;;;;;;;4.03;1.85;;;;;;;;;;5080285;28;20076;-80
2023/07/12 01:56:12;;;;;;;2.95;2.20;;;;;;;;;;5080767;28;20103;-80
2023/07/12 01:58:39;;;;;;;3.75;1.92;;;;;;;;;;5080569;28;20116;-80
2023/07/12 02:01:06;;;;;;;5.30;2.20;;;;;;;;;;5080576;28;20080;-79
2023/07/12 02:03:33;;;;;;;5.22;2.00;;;;;;;;;;5080461;28;20086;-76
2023/07/12 02:06:00;;;;;;;4.20;2.03;;;;;;;;;;5080230;28;20332;-79
2023/07/12 02:08:27;;;;;;;5.68;1.70;;;;;;;;;;5080088;28;20044;-79
2023/07/12 02:10:53;;;;;;;2.33;1.50;;;;;;;;;;5080447;28;20044;-79
2023/07/12 02:13:23;;;;;;;4.55;1.83;;;;;;;;;;5080167;28;20050;-79
2023/07/12 02:15:50;;;;;;;4.65;1.90;;;;;;;;;;5080093;28;20083;-80
2023/07/12 02:18:17;;;;;;;4.40;1.92;;;;;;;;;;5080291;28;20065;-78
2023/07/12 02:20:44;;;;;;;3.05;1.70;;;;;;;;;;5079802;28;20048;-78
2023/07/12 02:23:11;;;;;;;3.50;1.50;;;;;;;;;;5080428;28;20049;-79
2023/07/12 02:25:39;;;;;;;5.57;1.70;;;;;;;;;;5079285;28;20135;-79
2023/07/12 02:28:06;;;;;;;6.20;1.90;;;;;;;;;;5080211;28;20342;-79
2023/07/12 02:30:32;;;;;;;5.35;1.67;;;;;;;;;;5079978;28;20108;-80
2023/07/12 02:32:59;;;;;;;2.60;1.45;;;;;;;;;;5080518;28;20108;-79
2023/07/12 02:35:29;;;;;;;5.20;1.85;;;;;;;;;;5080376;28;20114;-79
2023/07/12 02:37:57;;;;;;;5.15;2.00;;;;;;;;;;5079639;28;20049;-80
2023/07/12 02:40:25;;;;;;;3.45;1.67;;;;;;;;;;5080115;28;20449;-79
2023/07/12 02:42:53;;;;;;;3.47;1.75;;;;;;;;;;5080054;28;20058;-79
2023/07/12 02:45:22;;;;;;;2.53;1.47;;;;;;;;;;5080440;28;20051;-80
2023/07/12 02:47:49;;;;;;;4.90;1.60;;;;;;;;;;5080053;28;20044;-80
2023/07/12 02:50:16;;;;;;;2.50;1.40;;;;;;;;;;5079905;28;20052;-80
2023/07/12 02:52:43;;;;;;;2.97;1.42;;;;;;;;;;5079630;28;20359;-79
2023/07/12 02:55:10;;;;;;;2.58;1.40;;;;;;;;;;5080352;28;20044;-81
2023/07/12 02:57:37;;;;;;;2.42;1.38;;;;;;;;;;5080073;28;20104;-80
2023/07/12 03:00:05;;;;;;;4.13;1.50;;;;;;;;;;5080293;28;20045;-79
2023/07/12 03:02:32;;;;;;;1.95;1.30;;;;;;;;;;5079938;28;20048;-80
2023/07/12 03:04:58;;;;;;;3.88;1.50;;;;;;;;;;5079837;28;20048;-79
2023/07/12 03:07:25;;;;;;;8.05;1.55;;;;;;;;;;5079203;28;20076;-78
2023/07/12 03:09:59;;;;;;;4.50;1.45;;;;;;;;;;5079994;28;20052;-79
2023/07/12 03:12:25;;;;;;;3.30;1.20;;;;;;;;;;5079688;28;20387;-80
2023/07/12 03:14:52;;;;;;;3.00;1.30;;;;;;;;;;5079873;28;20111;-77
2023/07/12 03:17:19;;;;;;;2.42;1.45;;;;;;;;;;5079540;28;20348;-78
2023/07/12 03:19:47;;;;;;;2.20;1.02;;;;;;;;;;5079782;28;20050;-79
2023/07/12 03:22:13;;;;;;;3.05;1.13;;;;;;;;;;5079642;28;20059;-78
2023/07/12 03:24:40;;;;;;;3.28;1.40;;;;;;;;;;5079742;28;20051;-79
2023/07/12 03:27:07;;;;;;;1.58;1.17;;;;;;;;;;5079848;28;20051;-79
2023/07/12 03:29:34;;;;;;;3.50;1.42;;;;;;;;;;5083063;28;20260;-75
2023/07/12 03:32:00;;;;;;;2.17;1.05;;;;;;;;;;5082948;28;20049;-77
2023/07/12 03:34:27;;;;;;;1.85;1.10;;;;;;;;;;5083280;28;20055;-79
2023/07/12 03:36:56;;;;;;;3.35;1.27;;;;;;;;;;5082611;28;20312;-73
2023/07/12 03:39:23;;;;;;;1.85;1.05;;;;;;;;;;5083013;28;20060;-77
2023/07/12 03:41:49;;;;;;;1.67;0.98;;;;;;;;;;5083288;28;20044;-77
2023/07/12 03:44:16;;;;;;;2.65;1.33;;;;;;;;;;5083063;28;20125;-79
2023/07/12 03:46:43;;;;;;;1.70;1.02;;;;;;;;;;5082805;28;20302;-79
2023/07/12 03:49:09;;;;;;;2.45;1.05;;;;;;;;;;5083049;28;20051;-75
2023/07/12 03:51:36;;;;;;;2.05;1.10;;;;;;;;;;5082688;28;20411;-77
2023/07/12 03:54:02;;;;;;;3.15;1.20;;;;;;;;;;5082855;28;20092;-77
2023/07/12 03:56:29;;;;;;;2.88;1.27;;;;;;;;;;5082795;28;20326;-79
2023/07/12 03:58:56;;;;;;;2.40;1.30;;;;;;;;;;5082605;28;20052;-74
2023/07/12 04:01:22;;;;;;;1.90;1.00;;;;;;;;;;5082207;28;20308;-79
2023/07/12 04:03:49;;;;;;;2.03;1.30;;;;;;;;;;5082681;28;20057;-79
2023/07/12 04:06:16;;;;;;;1.33;1.02;;;;;;;;;;5081331;28;20481;-76
2023/07/12 04:08:42;;;;;;;2.42;1.08;;;;;;;;;;5082318;28;20045;-80
2023/07/12 04:11:22;;;;;;;2.90;0.93;;;;;;;;;;5082719;28;20121;-78
2023/07/12 04:13:49;;;;;;;3.60;1.40;;;;;;;;;;5082530;28;20107;-80
2023/07/12 04:16:16;;;;;;;3.67;1.33;;;;;;;;;;5082273;28;20060;-79
2023/07/12 04:18:43;;;;;;;3.97;1.20;;;;;;;;;;5082083;28;20427;-79
2023/07/12 04:21:09;;;;;;;4.82;1.20;;;;;;;;;;5082179;28;20076;-79
2023/07/12 04:23:37;;;;;;;2.67;1.20;;;;;;;;;;5081857;28;20344;-78
2023/07/12 04:26:05;;;;;;;2.05;1.20;;;;;;;;;;5082263;28;20044;-79
2023/07/12 04:28:36;;;;;;;2.85;1.10;;;;;;;;;;5081958;28;20287;-79
2023/07/12 04:31:03;;;;;;;2.83;1.42;;;;;;;;;;5082187;28;20045;-80
2023/07/12 04:33:30;;;;;;;3.78;1.15;;;;;;;;;;5082299;28;20048;-79
2023/07/12 04:35:57;;;;;;;1.60;1.02;;;;;;;;;;5082195;28;20116;-80
2023/07/12 04:38:24;;;;;;;2.40;1.35;;;;;;;;;;5081119;28;20411;-76
2023/07/12 04:40:55;;;;;;;2.28;1.08;;;;;;;;;;5082011;28;20111;-79
2023/07/12 04:43:22;;;;;;;2.75;1.25;;;;;;;;;;5081834;28;20054;-79
2023/07/12 04:45:49;;;;;;;2.67;1.50;;;;;;;;;;5081917;28;20044;-80
2023/07/12 04:48:16;;;;;;;2.35;1.25;;;;;;;;;;5081541;28;20279;-80
2023/07/12 04:50:43;;;;;;;2.15;1.20;;;;;;;;;;5081927;28;20044;-79
2023/07/12 04:53:12;;;;;;;3.03;1.30;;;;;;;;;;5081153;28;20082;-77
2023/07/12 04:55:38;;;;;;;3.78;1.23;;;;;;;;;;5081456;28;20351;-79
2023/07/12 04:58:06;;;;;;;2.20;1.10;;;;;;;;;;5081395;28;20051;-77
2023/07/12 05:00:34;;;;;;;2.92;1.27;;;;;;;;;;5081347;28;20071;-78
2023/07/12 05:03:00;;;;;;;2.22;0.93;;;;;;;;;;5081393;28;20067;-78
2023/07/12 05:05:28;;;;;;;1.75;1.10;;;;;;;;;;5081910;28;20045;-78
2023/07/12 05:07:54;;;;;;;3.75;1.30;;;;;;;;;;5080954;28;20336;-77
2023/07/12 05:10:22;;;;;;;3.47;1.20;;;;;;;;;;5081201;28;20124;-78
2023/07/12 05:12:48;;;;;;;2.30;1.23;;;;;;;;;;5080930;28;20075;-79
2023/07/12 05:15:16;;;;;;;2.25;1.33;;;;;;;;;;5081222;28;20344;-77
2023/07/12 05:17:44;;;;;;;2.03;1.17;;;;;;;;;;5080927;28;20098;-79
2023/07/12 05:20:13;;;;;;;3.78;1.08;;;;;;;;;;5080997;28;20269;-80
2023/07/12 05:22:41;;;;;;;3.58;1.30;;;;;;;;;;5080555;28;20044;-80
2023/07/12 05:25:08;;;;;;;2.38;1.30;;;;;;;;;;5081095;28;20262;-79
2023/07/12 05:27:35;;;;;;;2.90;1.08;;;;;;;;;;5080861;28;20083;-74
2023/07/12 05:30:02;;;;;;;1.92;1.10;;;;;;;;;;5080808;28;20044;-79
2023/07/12 05:32:29;;;;;;;1.70;0.98;;;;;;;;;;5080563;28;20275;-78
2023/07/12 05:34:56;;;;;;;2.28;0.98;;;;;;;;;;5080869;28;20282;-79
2023/07/12 05:37:22;;;;;;;3.25;1.33;;;;;;;;;;5080308;28;20248;-78
2023/07/12 05:39:55;;;;;;;2.58;1.23;;;;;;;;;;5080843;28;20074;-75
2023/07/12 05:42:21;;;;;;;2.00;1.23;;;;;;;;;;5080749;28;20048;-80
2023/07/12 05:44:48;;;;;;;2.05;1.05;;;;;;;;;;5080944;28;20052;-73
2023/07/12 05:47:16;;;;;;;2.03;1.15;;;;;;;;;;5080282;28;20119;-76
2023/07/12 05:49:42;;;;;;;3.20;1.20;;;;;;;;;;5080171;28;20329;-77
2023/07/12 05:52:09;;;;;;;2.03;1.08;;;;;;;;;;5079703;28;20101;-76
2023/07/12 05:54:36;;;;;;;2.17;1.20;;;;;;;;;;5080215;28;20051;-80
2023/07/12 05:57:04;;;;;;;1.35;0.90;;;;;;;;;;5079520;28;20359;-81
2023/07/12 05:59:31;;;;;;;7.28;1.40;;;;;;;;;;5080692;28;20044;-86
2023/07/12 06:01:57;;;;;;;2.80;1.08;;;;;;;;;;5080334;28;20388;-80
2023/07/12 06:04:24;;;;;;;3.35;1.13;;;;;;;;;;5080034;28;20092;-81
2023/07/12 06:06:52;;;;;;;1.95;1.10;;;;;;;;;;5080131;28;20112;-74
2023/07/12 06:09:19;;;;;;;2.70;1.05;;;;;;;;;;5080067;28;20108;-81
2023/07/12 06:11:46;;;;;;;2.20;1.13;;;;;;;;;;5080213;28;20333;-80
2023/07/12 06:14:13;;;;;;;2.33;1.20;;;;;;;;;;5079539;28;20045;-81
2023/07/12 06:16:41;;;;;;;2.97;1.10;;;;;;;;;;5080222;28;20236;-79
2023/07/12 06:19:07;;;;;;;3.42;1.20;;;;;;;;;;5079787;28;20339;-79
2023/07/12 06:21:34;;;;;;;1.45;1.10;;;;;;;;;;5080250;28;20126;-80
2023/07/12 06:24:00;;;;;;;2.65;0.98;;;;;;;;;;5079684;28;20048;-83
2023/07/12 06:26:27;;;;;;;5.03;1.30;;;;;;;;;;5079149;28;20104;-77
2023/07/12 06:28:54;;;;;;;2.28;1.40;;;;;;;;;;5079972;28;20584;-76
2023/07/12 06:31:21;;;;;;;2.78;1.30;;;;;;;;;;5079993;28;20049;-75
2023/07/12 06:33:48;;;;;;;2.03;1.25;;;;;;;;;;5079854;28;20056;-76
2023/07/12 06:36:14;;;;;;;3.45;1.23;;;;;;;;;;5079527;28;20119;-73
2023/07/12 06:38:41;;;;;;;2.28;1.17;;;;;;;;;;5079368;28;20485;-75
2023/07/12 06:41:08;;;;;;;3.42;1.30;;;;;;;;;;5079721;28;20355;-75
2023/07/12 06:43:35;;;;;;;5.20;1.20;;;;;;;;;;5079961;28;20111;-74
2023/07/12 06:46:01;;;;;;;1.92;1.38;;;;;;;;;;5079549;28;20042;-71
2023/07/12 06:48:28;;;;;;;4.10;1.27;;;;;;;;;;5080212;28;20044;-75
2023/07/12 06:50:55;;;;;;;2.58;1.17;;;;;;;;;;5079950;28;20098;-77
2023/07/12 06:53:22;;;;;;;2.88;1.05;;;;;;;;;;5079328;28;20056;-75
2023/07/12 06:55:48;;;;;;;2.47;1.00;;;;;;;;;;5079790;28;20044;-74
2023/07/12 06:58:15;;;;;;;2.90;1.25;;;;;;;;;;5071829;28;20040;-75
2023/07/12 07:00:43;;;;;;;1.58;1.00;;;;;;;;;;5070115;28;20094;-74
2023/07/12 07:03:12;;;;;;;3.35;1.10;;;;;;;;;;5054070;28;20045;-74
2023/07/12 07:05:40;;;;;;;2.38;1.10;;;;;;;;;;5051583;28;20056;-72
2023/07/12 07:08:08;;;;;;;1.77;1.20;;;;;;;;;;5054415;28;20291;-74
2023/07/12 07:10:35;;;;;;;5.22;1.02;;;;;;;;;;5058995;28;20045;-73
2023/07/12 07:13:02;;;;;;;2.58;1.20;;;;;;;;;;5054774;28;20053;-76
2023/07/12 07:15:29;;;;;;;2.35;1.10;;;;;;;;;;5055106;28;20063;-79
2023/07/12 07:17:56;;;;;;;3.83;1.35;;;;;;;;;;5063508;28;20108;-78
2023/07/12 07:20:24;;;;;;;2.47;1.15;;;;;;;;;;5063173;28;20045;-77
2023/07/12 07:22:50;;;;;;;2.42;1.20;;;;;;;;;;5060146;28;20140;-77
2023/07/12 07:25:17;;;;;;;2.15;1.00;;;;;;;;;;5059963;28;20055;-76
2023/07/12 07:27:47;;;;;;;2.47;1.27;;;;;;;;;;5061882;28;20053;-77
2023/07/12 07:30:14;;;;;;;3.85;1.10;;;;;;;;;;5063131;28;20378;-76
2023/07/12 07:32:41;;;;;;;2.63;1.40;;;;;;;;;;5063296;28;20072;-77
2023/07/12 07:35:08;;;;;;;1.52;1.05;;;;;;;;;;5063065;28;20044;-76
2023/07/12 07:37:35;;;;;;;2.55;1.27;;;;;;;;;;5062688;28;20045;-76
2023/07/12 07:40:03;;;;;;;1.50;1.00;;;;;;;;;;5063018;28;20382;-76
2023/07/12 07:42:30;;;;;;;2.05;1.25;;;;;;;;;;5063321;28;20053;-77
2023/07/12 07:44:56;;;;;;;2.22;1.20;;;;;;;;;;5062279;28;20044;-76
2023/07/12 07:47:23;;;;;;;3.72;1.40;;;;;;;;;;5063266;28;20099;-78
2023/07/12 07:49:50;;;;;;;2.65;1.08;;;;;;;;;;5062410;28;20044;-77
2023/07/12 07:52:16;;;;;;;1.85;1.08;;;;;;;;;;5062090;28;20052;-75
2023/07/12 07:54:43;;;;;;;2.70;1.10;;;;;;;;;;5062594;28;20049;-78
2023/07/12 07:57:10;;;;;;;1.55;1.13;;;;;;;;;;5063008;28;20045;-78
2023/07/12 07:59:37;;;;;;;2.83;1.20;;;;;;;;;;5062654;28;20045;-78
2023/07/12 08:02:04;;;;;;;3.60;1.05;;;;;;;;;;5063016;28;20045;-78
2023/07/12 08:04:31;;;;;;;1.98;1.10;;;;;;;;;;5060730;28;20077;-79
2023/07/12 08:06:58;;;;;;;4.32;1.10;;;;;;;;;;5062241;28;20112;-78
2023/07/12 08:09:25;;;;;;;3.58;1.13;;;;;;;;;;5062309;28;20060;-78
2023/07/12 08:11:51;;;;;;;2.60;1.23;;;;;;;;;;5061488;28;20052;-87
2023/07/12 08:14:20;;;;;;;3.00;1.27;;;;;;;;;;5061763;28;20080;-84
2023/07/12 08:16:48;;;;;;;4.30;1.50;;;;;;;;;;5062319;28;20128;-83
2023/07/12 08:19:15;;;;;;;2.50;1.10;;;;;;;;;;5062252;28;20053;-84
2023/07/12 08:21:49;;;;;;;2.00;1.30;;;;;;;;;;5062332;28;20100;-85
2023/07/12 08:24:16;;;;;;;1.73;0.98;;;;;;;;;;5061983;28;20075;-84
2023/07/12 08:26:43;;;;;;;1.85;1.08;;;;;;;;;;5062136;28;20328;-84
2023/07/12 08:29:23;;;;;;;1.95;1.00;;;;;;;;;;5061665;28;20045;-83
2023/07/12 08:31:50;;;;;;;4.53;1.50;;;;;;;;;;5061187;28;20048;-84
2023/07/12 08:34:19;;;;;;;3.45;1.45;;;;;;;;;;5050685;28;20053;-84
2023/07/12 08:36:46;;;;;;;1.63;1.00;;;;;;;;;;5049525;28;20044;-83
2023/07/12 08:39:12;;;;;;;3.22;1.27;;;;;;;;;;5049778;28;20432;-82
2023/07/12 08:41:39;;;;;;;2.05;1.20;;;;;;;;;;5050595;28;20056;-84
2023/07/12 08:44:12;;;;;;;3.00;1.10;;;;;;;;;;5050092;28;20428;-84
2023/07/12 08:46:45;;;;;;;2.58;1.20;;;;;;;;;;5050723;28;20049;-84
2023/07/12 08:49:18;;;;;;;4.32;1.40;;;;;;;;;;5065191;28;20049;-83
2023/07/12 08:51:49;;;;;;;2.50;1.15;;;;;;;;;;5050232;28;20049;-85
2023/07/12 08:54:24;;;;;;;3.05;1.13;;;;;;;;;;5050124;28;20320;-83
2023/07/12 08:57:09;;;;;;;3.13;1.40;;;;;;;;;;5050470;28;20045;-84
2023/07/12 08:59:36;;;;;;;5.65;1.20;;;;;;;;;;5050217;28;20098;-82
2023/07/12 09:02:03;;;;;;;3.17;1.00;;;;;;;;;;5049798;28;20767;-84
2023/07/12 09:04:31;;;;;;;2.03;1.23;;;;;;;;;;5049364;28;20076;-84
2023/07/12 09:07:04;;;;;;;2.67;1.20;;;;;;;;;;5049802;28;20048;-83
2023/07/12 09:09:35;;;;;;;2.67;1.50;;;;;;;;;;5049411;28;20041;-82
2023/07/12 09:12:05;;;;;;;2.08;1.13;;;;;;;;;;5050126;28;20041;-84
2023/07/12 09:14:35;;;;;;;2.77;1.27;;;;;;;;;;5049573;28;20048;-84
2023/07/12 09:17:02;;;;;;;4.28;1.33;;;;;;;;;;5050123;28;20044;-83
2023/07/12 09:19:37;;;;;;;2.90;1.23;;;;;;;;;;5049630;28;20483;-82
2023/07/12 09:22:15;;;;;;;2.47;1.20;;;;;;;;;;5048835;28;20500;-84
2023/07/12 09:24:44;;;;;;;3.03;1.40;;;;;;;;;;5049175;28;20049;-83
2023/07/12 09:27:18;;;;;;;2.60;1.30;;;;;;;;;;5049312;28;20045;-84
2023/07/12 09:29:44;;;;;;;2.42;1.13;;;;;;;;;;5049308;28;20509;-85
2023/07/12 09:32:23;;;;;;;2.60;1.10;;;;;;;;;;5049712;28;20052;-84
2023/07/12 09:34:54;;;;;;;1.85;1.00;;;;;;;;;;5049167;28;20057;-84
2023/07/12 09:37:24;;;;;;;2.17;1.13;;;;;;;;;;5048837;28;20140;-82
2023/07/12 09:39:52;;;;;;;;;;;;;;;;;;5049323;28;20048;-83
2023/07/12 09:42:19;;;;;;;2.63;1.20;;;;;;;;;;5049151;28;19921;-84
2023/07/12 09:44:47;;;;;;;2.78;1.25;;;;;;;;;;5049337;28;20063;-83
2023/07/12 09:47:37;;;;;;;2.17;1.27;;;;;;;;;;5049331;28;20382;-83
2023/07/12 09:50:18;;;;;;;1.90;1.15;;;;;;;;;;5049198;28;20048;-80
2023/07/12 09:52:44;;;;;;;;;;;;;;;;;;5048074;28;20053;-84
2023/07/12 09:55:14;;;;;;;2.53;1.27;;;;;;;;;;5048900;28;19920;-83
2023/07/12 09:58:02;;;;;;;4.60;1.27;;;;;;;;;;5049144;28;20055;-84
2023/07/12 10:00:59;;;;;;;4.68;1.35;;;;;;;;;;5049036;28;20078;-83
2023/07/12 10:03:38;;;;;;;2.25;1.10;;;;;;;;;;5048852;28;20408;-84
2023/07/12 10:06:29;;;;;;;2.05;1.20;;;;;;;;;;5049067;28;20053;-84
2023/07/12 10:09:12;;;;;;;4.20;1.20;;;;;;;;;;5048462;28;20080;-77
2023/07/12 10:11:46;;;;;;;2.55;1.30;;;;;;;;;;5048771;28;20063;-84
2023/07/12 10:14:16;;;;;;;1.50;0.90;;;;;;;;;;5048817;28;20570;-80
2023/07/12 10:16:50;;;;;;;2.25;1.17;;;;;;;;;;5048607;28;20508;-83
2023/07/12 10:19:28;;;;;;;3.47;1.40;;;;;;;;;;5048496;28;20045;-84
2023/07/12 10:21:59;;;;;;;4.25;1.23;;;;;;;;;;5048139;28;20052;-84
2023/07/12 10:24:39;;;;;;;3.47;1.10;;;;;;;;;;5048841;28;20428;-84
2023/07/12 10:27:24;;;;;;;2.67;1.10;;;;;;;;;;5048808;28;20045;-83
2023/07/12 10:29:57;;;;;;;4.57;1.27;;;;;;;;;;5048907;28;20128;-84
2023/07/12 10:32:28;;;;;;;3.47;1.10;;;;;;;;;;5048476;28;20052;-84
2023/07/12 10:35:04;;;;;;;1.35;0.90;;;;;;;;;;5048225;28;20053;-84
2023/07/12 10:37:37;;;;;;;2.15;1.20;;;;;;;;;;5050243;28;20048;-84
2023/07/12 10:40:12;;;;;;;3.05;1.13;;;;;;;;;;5053223;28;20390;-84
2023/07/12 10:42:49;;;;;;;1.15;0.90;;;;;;;;;;5052450;28;20045;-79
2023/07/12 10:45:23;;;;;;;2.38;0.93;;;;;;;;;;5052635;28;20729;-83
2023/07/12 10:47:52;;;;;;;1.83;0.70;;;;;;;;;;5052303;28;20505;-83
2023/07/12 10:50:34;;;;;;;3.28;1.30;;;;;;;;;;5052298;28;20679;-80
2023/07/12 10:53:22;;;;;;;1.73;1.00;;;;;;;;;;5052171;28;20048;-84
2023/07/12 10:55:54;;;;;;;2.40;0.95;;;;;;;;;;5052117;28;20529;-83
2023/07/12 10:58:21;;;;;;;1.63;0.90;;;;;;;;;;5052569;28;20045;-82
2023/07/12 11:00:59;;;;;;;3.88;1.10;;;;;;;;;;5052426;28;20049;-84
2023/07/12 11:03:41;;;;;;;2.08;1.27;;;;;;;;;;5052182;28;20053;-84
2023/07/12 11:06:25;;;;;;;2.22;0.90;;;;;;;;;;5051832;28;20590;-83
2023/07/12 11:08:59;;;;;;;2.13;1.10;;;;;;;;;;5051965;28;20215;-77
2023/07/12 11:11:28;;;;;;;1.90;1.02;;;;;;;;;;5051770;28;20455;-84
2023/07/12 11:14:10;;;;;;;1.45;0.90;;;;;;;;;;5051906;28;20049;-84
2023/07/12 11:16:45;;;;;;;4.05;0.90;;;;;;;;;;5052191;28;20048;-84
2023/07/12 11:19:33;;;;;;;2.45;0.90;;;;;;;;;;5052187;28;20056;-79
2023/07/12 11:22:17;;;;;;;3.13;0.88;;;;;;;;;;5051303;28;20041;-84
2023/07/12 11:24:58;;;;;;;3.47;1.10;;;;;;;;;;5052219;28;20084;-83
2023/07/12 11:27:41;;;;;;;5.60;1.00;;;;;;;;;;5051419;28;20052;-83
2023/07/12 11:30:28;;;;;;;1.98;1.10;;;;;;;;;;5052004;28;20114;-84
2023/07/12 11:33:04;;;;;;;2.47;1.10;;;;;;;;;;5050947;28;20052;-82
2023/07/12 11:35:47;;;;;;;1.40;0.85;;;;;;;;;;5051754;28;20132;-83
2023/07/12 11:38:27;;;;;;;1.48;0.95;;;;;;;;;;5051341;28;20044;-82
2023/07/12 11:40:55;;;;;;;1.30;0.80;;;;;;;;;;5051589;28;20049;-83
2023/07/12 11:43:22;;;;;;;4.18;1.10;;;;;;;;;;5050967;28;20056;-82
2023/07/12 11:45:54;;;;;;;1.40;0.90;;;;;;;;;;5051197;28;20145;-84
2023/07/12 11:48:23;;;;;;;2.20;1.00;;;;;;;;;;5050618;28;20051;-84
2023/07/12 11:50:51;;;;;;;4.20;1.67;;;;;;;;;;5051651;28;20047;-83
2023/07/12 11:53:19;;;;;;;1.92;0.98;;;;;;;;;;5050701;28;20394;-83
2023/07/12 11:55:47;;;;;;;4.25;1.20;;;;;;;;;;5051317;28;20484;-83
2023/07/12 11:58:20;;;;;;;3.13;0.95;;;;;;;;;;5051003;28;20040;-83
2023/07/12 12:00:49;;;;;;;2.28;1.08;;;;;;;;;;5051365;28;20049;-83
2023/07/12 12:03:20;;;;;;;2.10;1.02;;;;;;;;;;5050136;28;20083;-84
2023/07/12 12:05:48;;;;;;;3.17;1.38;;;;;;;;;;5051059;28;20049;-84
2023/07/12 12:08:25;;;;;;;2.63;1.10;;;;;;;;;;5050541;28;20052;-80
2023/07/12 12:10:54;;;;;;;3.30;1.05;;;;;;;;;;5051203;28;20068;-82
2023/07/12 12:13:26;;;;;;;1.23;0.82;;;;;;;;;;5050655;28;20052;-84
2023/07/12 12:15:58;;;;;;;4.10;0.93;;;;;;;;;;5050896;28;20500;-83
2023/07/12 12:18:25;;;;;;;2.65;0.85;;;;;;;;;;5050916;28;20041;-84
2023/07/12 12:20:59;;;;;;;1.80;0.90;;;;;;;;;;5050667;28;20106;-83
2023/07/12 12:23:41;;;;;;;2.65;1.00;;;;;;;;;;5050055;28;20052;-83
2023/07/12 12:26:21;;;;;;;3.75;1.10;;;;;;;;;;5050959;28;20068;-83
2023/07/12 12:29:07;;;;;;;1.48;0.82;;;;;;;;;;5050510;28;20060;-83
2023/07/12 12:31:37;;;;;;;2.83;1.17;;;;;;;;;;5050648;28;20064;-82
2023/07/12 12:34:08;;;;;;;1.40;0.80;;;;;;;;;;5050682;28;20159;-82
2023/07/12 12:36:35;;;;;;;2.15;1.08;;;;;;;;;;5050631;28;20045;-78
2023/07/12 12:39:11;;;;;;;2.85;0.90;;;;;;;;;;5049866;28;20473;-81
2023/07/12 12:41:43;;;;;;;1.58;0.80;;;;;;;;;;5050324;28;20045;-83
2023/07/12 12:44:12;;;;;;;2.33;0.90;;;;;;;;;;5050270;28;20045;-80
2023/07/12 12:46:43;;;;;;;2.83;1.10;;;;;;;;;;5050350;28;20080;-79
2023/07/12 12:49:22;;;;;;;1.42;0.82;;;;;;;;;;5050191;28;20056;-85
2023/07/12 12:51:54;;;;;;;1.15;0.75;;;;;;;;;;5049973;28;20061;-81
2023/07/12 12:54:24;;;;;;;2.45;1.02;;;;;;;;;;5050257;28;20053;-93
2023/07/12 12:56:52;;;;;;;2.38;0.85;;;;;;;;;;5049812;28;20568;-78
2023/07/12 12:59:21;;;;;;;3.88;1.15;;;;;;;;;;5049868;28;20417;-81
2023/07/12 13:01:51;;;;;;;1.92;0.88;;;;;;;;;;5064924;28;20053;-83
2023/07/12 13:04:20;;;;;;;1.38;0.85;;;;;;;;;;5050061;28;20061;-79
2023/07/12 13:06:50;;;;;;;3.42;1.00;;;;;;;;;;5049730;28;20052;-78
2023/07/12 13:09:28;;;;;;;1.90;1.00;;;;;;;;;;5049663;28;20045;-78
2023/07/12 13:11:58;;;;;;;4.82;1.20;;;;;;;;;;5049866;28;20071;-79
2023/07/12 13:14:27;;;;;;;1.37;0.83;;;;;;;;;;5049430;28;20061;-79
2023/07/12 13:16:57;;;;;;;10.50;1.20;;;;;;;;;;5064962;28;20045;-77
2023/07/12 13:19:46;;;;;;;2.53;1.10;;;;;;;;;;5052595;28;20053;-77
2023/07/12 13:22:20;;;;;;;2.70;1.20;;;;;;;;;;5049248;28;20076;-80
2023/07/12 13:24:47;;;;;;;2.83;1.00;;;;;;;;;;5049618;28;20497;-79
2023/07/12 13:27:17;;;;;;;1.75;0.95;;;;;;;;;;5049418;28;20131;-75
2023/07/12 13:29:44;;;;;;;;;;;;;;;;;;5051886;28;20230;-78
2023/07/12 13:32:14;;;;;;;3.30;1.17;;;;;;;;;;5050028;28;19928;-77
2023/07/12 13:34:41;;;;;;;1.67;1.00;;;;;;;;;;5049275;28;20063;-81
2023/07/12 13:37:22;;;;;;;1.92;0.98;;;;;;;;;;5049064;28;20045;-78
2023/07/12 13:39:55;;;;;;;2.50;0.95;;;;;;;;;;5049349;28;20045;-80
2023/07/12 13:42:23;;;;;;;2.05;1.02;;;;;;;;;;5053392;28;20053;-79
2023/07/12 13:44:53;;;;;;;2.67;0.98;;;;;;;;;;5050273;28;20487;-79
2023/07/12 13:47:24;;;;;;;3.50;0.90;;;;;;;;;;5053077;28;20747;-79
2023/07/12 13:49:54;;;;;;;2.85;1.20;;;;;;;;;;5049842;28;20048;-80
2023/07/12 13:52:26;;;;;;;2.30;0.98;;;;;;;;;;5052029;28;20041;-80
2023/07/12 13:54:53;;;;;;;1.55;1.00;;;;;;;;;;5048553;28;20135;-80
2023/07/12 13:57:25;;;;;;;1.45;0.93;;;;;;;;;;5049306;28;20041;-79
2023/07/12 13:59:51;;;;;;;3.85;1.65;;;;;;;;;;5048920;28;20041;-80
2023/07/12 14:02:32;;;;;;;2.33;1.05;;;;;;;;;;5048732;28;20522;-77
2023/07/12 14:05:05;;;;;;;3.08;1.23;;;;;;;;;;5048772;28;20041;-79
2023/07/12 14:07:38;;;;;;;2.30;1.20;;;;;;;;;;5047622;28;20520;-79
2023/07/12 14:10:13;;;;;;;3.13;1.05;;;;;;;;;;5048822;28;20048;-79
2023/07/12 14:12:47;;;;;;;2.03;1.08;;;;;;;;;;5048035;28;20592;-80
2023/07/12 14:15:22;;;;;;;3.47;1.10;;;;;;;;;;5052649;28;20048;-81
2023/07/12 14:17:50;;;;;;;3.03;0.90;;;;;;;;;;5052571;28;20323;-80
2023/07/12 14:20:19;;;;;;;1.33;0.90;;;;;;;;;;5056651;28;20037;-77
2023/07/12 14:22:46;;;;;;;2.83;1.20;;;;;;;;;;5050073;28;20497;-77
2023/07/12 14:25:23;;;;;;;2.40;0.98;;;;;;;;;;5050141;28;20049;-82
2023/07/12 14:27:50;;;;;;;2.03;1.08;;;;;;;;;;5048485;28;20852;-77
2023/07/12 14:30:16;;;;;;;1.52;1.02;;;;;;;;;;5048949;28;20045;-82
2023/07/12 14:32:46;;;;;;;2.30;1.00;;;;;;;;;;5048357;28;20513;-83
2023/07/12 14:35:22;;;;;;;2.33;1.23;;;;;;;;;;5054761;28;20053;-79
2023/07/12 14:37:49;;;;;;;2.97;1.30;;;;;;;;;;5056386;28;20041;-82
2023/07/12 14:40:17;;;;;;;2.28;1.08;;;;;;;;;;5051856;28;20041;-79
2023/07/12 14:42:45;;;;;;;1.40;0.98;;;;;;;;;;5054789;28;20049;-84
2023/07/12 14:45:22;;;;;;;2.45;1.20;;;;;;;;;;5054117;28;20056;-86
2023/07/12 14:47:49;;;;;;;1.85;1.08;;;;;;;;;;5065262;28;20534;-82
2023/07/12 14:50:20;;;;;;;2.53;1.20;;;;;;;;;;5064028;28;20098;-81
2023/07/12 14:52:47;;;;;;;2.50;1.05;;;;;;;;;;5066764;28;20072;-80
2023/07/12 14:55:17;;;;;;;1.98;1.08;;;;;;;;;;5065159;28;20044;-80
2023/07/12 14:57:44;;;;;;;;;;;;;;;;;;5060481;28;20496;-80
2023/07/12 15:00:30;;;;;;;1.85;1.08;;;;;;;;;;5067976;28;19924;-82
2023/07/12 15:02:58;;;;;;;3.90;1.30;;;;;;;;;;5063659;28;20520;-82